sensor_id;sensor_type;location;lat;lon;timestamp;temperature;humidity
46732;DHT22;32477;51.474;5.696;2023-04-25T00:00:11;7.00;99.90
46732;DHT22;32477;51.474;5.696;2023-04-25T00:02:37;7.00;99.90
46732;DHT22;32477;51.474;5.696;2023-04-25T00:05:03;7.00;99.90
46732;DHT22;32477;51.474;5.696;2023-04-25T00:07:28;6.90;99.90
46732;DHT22;32477;51.474;5.696;2023-04-25T00:09:54;7.00;99.90
46732;DHT22;32477;51.474;5.696;2023-04-25T00:12:20;7.00;99.90
46732;DHT22;32477;51.474;5.696;2023-04-25T00:14:48;7.00;99.90
46732;DHT22;32477;51.474;5.696;2023-04-25T00:17:15;7.00;99.90
46732;DHT22;32477;51.474;5.696;2023-04-25T00:19:42;6.90;99.90
46732;DHT22;32477;51.474;5.696;2023-04-25T00:22:10;7.00;99.90
46732;DHT22;32477;51.474;5.696;2023-04-25T00:24:36;7.00;99.90
46732;DHT22;32477;51.474;5.696;2023-04-25T00:27:01;7.00;99.90
46732;DHT22;32477;51.474;5.696;2023-04-25T00:29:27;7.00;99.90
46732;DHT22;32477;51.474;5.696;2023-04-25T00:31:53;7.00;99.90
46732;DHT22;32477;51.474;5.696;2023-04-25T00:34:18;7.00;99.90
46732;DHT22;32477;51.474;5.696;2023-04-25T00:36:44;7.00;99.90
46732;DHT22;32477;51.474;5.696;2023-04-25T00:39:10;6.90;99.90
46732;DHT22;32477;51.474;5.696;2023-04-25T00:41:37;6.80;99.90
46732;DHT22;32477;51.474;5.696;2023-04-25T00:44:04;6.80;99.90
46732;DHT22;32477;51.474;5.696;2023-04-25T00:46:32;6.80;99.90
46732;DHT22;32477;51.474;5.696;2023-04-25T00:48:58;6.80;99.90
46732;DHT22;32477;51.474;5.696;2023-04-25T00:51:24;6.80;99.90
46732;DHT22;32477;51.474;5.696;2023-04-25T00:53:51;6.70;99.90
46732;DHT22;32477;51.474;5.696;2023-04-25T00:56:17;6.70;99.90
46732;DHT22;32477;51.474;5.696;2023-04-25T00:58:43;6.70;99.90
46732;DHT22;32477;51.474;5.696;2023-04-25T01:01:10;6.60;99.90
46732;DHT22;32477;51.474;5.696;2023-04-25T01:03:38;6.50;99.90
46732;DHT22;32477;51.474;5.696;2023-04-25T01:06:08;6.30;99.90
46732;DHT22;32477;51.474;5.696;2023-04-25T01:08:34;6.30;99.90
46732;DHT22;32477;51.474;5.696;2023-04-25T01:11:01;6.20;99.90
46732;DHT22;32477;51.474;5.696;2023-04-25T01:13:29;6.20;99.90
46732;DHT22;32477;51.474;5.696;2023-04-25T01:15:55;6.20;99.90
46732;DHT22;32477;51.474;5.696;2023-04-25T01:18:21;6.30;99.90
46732;DHT22;32477;51.474;5.696;2023-04-25T01:20:50;6.30;99.90
46732;DHT22;32477;51.474;5.696;2023-04-25T01:23:16;6.30;99.90
46732;DHT22;32477;51.474;5.696;2023-04-25T01:25:42;6.30;99.90
46732;DHT22;32477;51.474;5.696;2023-04-25T01:28:19;6.20;99.90
46732;DHT22;32477;51.474;5.696;2023-04-25T01:30:54;6.20;99.90
46732;DHT22;32477;51.474;5.696;2023-04-25T01:33:21;6.00;99.90
46732;DHT22;32477;51.474;5.696;2023-04-25T01:35:47;5.90;99.90
46732;DHT22;32477;51.474;5.696;2023-04-25T01:38:14;5.70;99.90
46732;DHT22;32477;51.474;5.696;2023-04-25T01:40:40;5.60;99.90
46732;DHT22;32477;51.474;5.696;2023-04-25T01:43:06;5.60;99.90
46732;DHT22;32477;51.474;5.696;2023-04-25T01:45:33;5.50;99.90
46732;DHT22;32477;51.474;5.696;2023-04-25T01:47:59;5.50;99.90
46732;DHT22;32477;51.474;5.696;2023-04-25T01:50:25;5.40;99.90
46732;DHT22;32477;51.474;5.696;2023-04-25T01:52:51;5.40;99.90
46732;DHT22;32477;51.474;5.696;2023-04-25T01:55:16;5.40;99.90
46732;DHT22;32477;51.474;5.696;2023-04-25T01:57:43;5.40;99.90
46732;DHT22;32477;51.474;5.696;2023-04-25T02:00:09;5.40;99.90
46732;DHT22;32477;51.474;5.696;2023-04-25T02:02:35;5.60;99.90
46732;DHT22;32477;51.474;5.696;2023-04-25T02:05:01;5.70;99.90
46732;DHT22;32477;51.474;5.696;2023-04-25T02:07:27;5.80;99.90
46732;DHT22;32477;51.474;5.696;2023-04-25T02:09:53;5.80;99.90
46732;DHT22;32477;51.474;5.696;2023-04-25T02:12:18;5.80;99.90
46732;DHT22;32477;51.474;5.696;2023-04-25T02:14:44;5.80;99.90
46732;DHT22;32477;51.474;5.696;2023-04-25T02:17:09;5.80;99.90
46732;DHT22;32477;51.474;5.696;2023-04-25T02:19:35;5.90;99.90
46732;DHT22;32477;51.474;5.696;2023-04-25T02:22:01;5.90;99.90
46732;DHT22;32477;51.474;5.696;2023-04-25T02:24:26;5.90;99.90
46732;DHT22;32477;51.474;5.696;2023-04-25T02:26:53;5.80;99.90
46732;DHT22;32477;51.474;5.696;2023-04-25T02:29:20;5.80;99.90
46732;DHT22;32477;51.474;5.696;2023-04-25T02:31:46;5.70;99.90
46732;DHT22;32477;51.474;5.696;2023-04-25T02:34:12;5.60;99.90
46732;DHT22;32477;51.474;5.696;2023-04-25T02:36:37;5.60;99.90
46732;DHT22;32477;51.474;5.696;2023-04-25T02:39:03;5.50;99.90
46732;DHT22;32477;51.474;5.696;2023-04-25T02:41:29;5.40;99.90
46732;DHT22;32477;51.474;5.696;2023-04-25T02:43:55;5.40;99.90
46732;DHT22;32477;51.474;5.696;2023-04-25T02:46:21;5.30;99.90
46732;DHT22;32477;51.474;5.696;2023-04-25T02:48:46;5.20;99.90
46732;DHT22;32477;51.474;5.696;2023-04-25T02:51:12;5.20;99.90
46732;DHT22;32477;51.474;5.696;2023-04-25T02:53:38;5.10;99.90
46732;DHT22;32477;51.474;5.696;2023-04-25T02:56:04;5.00;99.90
46732;DHT22;32477;51.474;5.696;2023-04-25T02:58:29;5.00;99.90
46732;DHT22;32477;51.474;5.696;2023-04-25T03:00:55;5.00;99.90
46732;DHT22;32477;51.474;5.696;2023-04-25T03:03:21;4.90;99.90
46732;DHT22;32477;51.474;5.696;2023-04-25T03:05:48;4.90;99.90
46732;DHT22;32477;51.474;5.696;2023-04-25T03:08:14;4.80;99.90
46732;DHT22;32477;51.474;5.696;2023-04-25T03:10:40;4.80;99.90
46732;DHT22;32477;51.474;5.696;2023-04-25T03:13:06;4.80;99.90
46732;DHT22;32477;51.474;5.696;2023-04-25T03:15:32;4.70;99.90
46732;DHT22;32477;51.474;5.696;2023-04-25T03:17:57;4.70;99.90
46732;DHT22;32477;51.474;5.696;2023-04-25T03:20:23;4.60;99.90
46732;DHT22;32477;51.474;5.696;2023-04-25T03:22:49;4.50;99.90
46732;DHT22;32477;51.474;5.696;2023-04-25T03:25:14;4.60;99.90
46732;DHT22;32477;51.474;5.696;2023-04-25T03:27:40;4.60;99.90
46732;DHT22;32477;51.474;5.696;2023-04-25T03:30:06;4.60;99.90
46732;DHT22;32477;51.474;5.696;2023-04-25T03:32:33;4.60;99.90
46732;DHT22;32477;51.474;5.696;2023-04-25T03:34:59;4.60;99.90
46732;DHT22;32477;51.474;5.696;2023-04-25T03:37:24;4.60;99.90
46732;DHT22;32477;51.474;5.696;2023-04-25T03:39:50;4.60;99.90
46732;DHT22;32477;51.474;5.696;2023-04-25T03:42:16;4.60;99.90
46732;DHT22;32477;51.474;5.696;2023-04-25T03:44:42;4.60;99.90
46732;DHT22;32477;51.474;5.696;2023-04-25T03:47:07;4.50;99.90
46732;DHT22;32477;51.474;5.696;2023-04-25T03:49:34;4.60;99.90
46732;DHT22;32477;51.474;5.696;2023-04-25T03:52:01;4.70;99.90
46732;DHT22;32477;51.474;5.696;2023-04-25T03:54:27;4.60;99.90
46732;DHT22;32477;51.474;5.696;2023-04-25T03:56:52;4.70;99.90
46732;DHT22;32477;51.474;5.696;2023-04-25T03:59:18;4.70;99.90
46732;DHT22;32477;51.474;5.696;2023-04-25T04:01:44;4.80;99.90
46732;DHT22;32477;51.474;5.696;2023-04-25T04:04:09;4.90;99.90
46732;DHT22;32477;51.474;5.696;2023-04-25T04:06:35;4.90;99.90
46732;DHT22;32477;51.474;5.696;2023-04-25T04:09:02;4.90;99.90
46732;DHT22;32477;51.474;5.696;2023-04-25T04:11:28;5.00;99.90
46732;DHT22;32477;51.474;5.696;2023-04-25T04:13:54;5.00;99.90
46732;DHT22;32477;51.474;5.696;2023-04-25T04:16:19;5.00;99.90
46732;DHT22;32477;51.474;5.696;2023-04-25T04:18:46;5.00;99.90
46732;DHT22;32477;51.474;5.696;2023-04-25T04:21:11;5.00;99.90
46732;DHT22;32477;51.474;5.696;2023-04-25T04:23:37;5.00;99.90
46732;DHT22;32477;51.474;5.696;2023-04-25T04:26:03;5.00;99.90
46732;DHT22;32477;51.474;5.696;2023-04-25T04:28:28;5.10;99.90
46732;DHT22;32477;51.474;5.696;2023-04-25T04:30:54;5.10;99.90
46732;DHT22;32477;51.474;5.696;2023-04-25T04:33:20;5.10;99.90
46732;DHT22;32477;51.474;5.696;2023-04-25T04:35:46;5.20;99.90
46732;DHT22;32477;51.474;5.696;2023-04-25T04:38:13;5.30;99.90
46732;DHT22;32477;51.474;5.696;2023-04-25T04:40:41;5.30;99.90
46732;DHT22;32477;51.474;5.696;2023-04-25T04:43:08;5.40;99.90
46732;DHT22;32477;51.474;5.696;2023-04-25T04:45:36;5.40;99.90
46732;DHT22;32477;51.474;5.696;2023-04-25T04:48:05;5.40;99.90
46732;DHT22;32477;51.474;5.696;2023-04-25T04:50:31;5.50;99.90
46732;DHT22;32477;51.474;5.696;2023-04-25T04:52:58;5.60;99.90
46732;DHT22;32477;51.474;5.696;2023-04-25T04:55:23;5.70;99.90
46732;DHT22;32477;51.474;5.696;2023-04-25T04:57:49;5.80;99.90
46732;DHT22;32477;51.474;5.696;2023-04-25T05:00:15;5.80;99.90
46732;DHT22;32477;51.474;5.696;2023-04-25T05:02:41;5.90;99.90
46732;DHT22;32477;51.474;5.696;2023-04-25T05:05:07;5.90;99.90
46732;DHT22;32477;51.474;5.696;2023-04-25T05:07:33;6.00;99.90
46732;DHT22;32477;51.474;5.696;2023-04-25T05:09:59;6.00;99.90
46732;DHT22;32477;51.474;5.696;2023-04-25T05:12:25;6.00;99.90
46732;DHT22;32477;51.474;5.696;2023-04-25T05:14:50;6.10;99.90
46732;DHT22;32477;51.474;5.696;2023-04-25T05:17:16;6.10;99.90
46732;DHT22;32477;51.474;5.696;2023-04-25T05:19:42;6.20;99.90
46732;DHT22;32477;51.474;5.696;2023-04-25T05:22:07;6.20;99.90
46732;DHT22;32477;51.474;5.696;2023-04-25T05:24:33;6.30;99.90
46732;DHT22;32477;51.474;5.696;2023-04-25T05:26:59;6.40;99.90
46732;DHT22;32477;51.474;5.696;2023-04-25T05:29:24;6.40;99.90
46732;DHT22;32477;51.474;5.696;2023-04-25T05:31:50;6.50;99.90
46732;DHT22;32477;51.474;5.696;2023-04-25T05:34:15;6.50;99.90
46732;DHT22;32477;51.474;5.696;2023-04-25T05:36:42;6.50;99.90
46732;DHT22;32477;51.474;5.696;2023-04-25T05:39:07;6.50;99.90
46732;DHT22;32477;51.474;5.696;2023-04-25T05:41:34;6.50;99.90
46732;DHT22;32477;51.474;5.696;2023-04-25T05:43:59;6.50;99.90
46732;DHT22;32477;51.474;5.696;2023-04-25T05:46:25;6.70;99.90
46732;DHT22;32477;51.474;5.696;2023-04-25T05:48:51;6.90;99.90
46732;DHT22;32477;51.474;5.696;2023-04-25T05:51:16;7.10;99.90
46732;DHT22;32477;51.474;5.696;2023-04-25T05:53:44;7.20;99.90
46732;DHT22;32477;51.474;5.696;2023-04-25T05:56:09;7.40;99.90
46732;DHT22;32477;51.474;5.696;2023-04-25T05:58:35;7.50;99.90
46732;DHT22;32477;51.474;5.696;2023-04-25T06:01:01;7.60;99.90
46732;DHT22;32477;51.474;5.696;2023-04-25T06:03:28;7.70;99.90
46732;DHT22;32477;51.474;5.696;2023-04-25T06:05:53;7.80;99.90
46732;DHT22;32477;51.474;5.696;2023-04-25T06:08:19;7.90;99.90
46732;DHT22;32477;51.474;5.696;2023-04-25T06:10:45;7.90;99.90
46732;DHT22;32477;51.474;5.696;2023-04-25T06:13:10;7.80;99.90
46732;DHT22;32477;51.474;5.696;2023-04-25T06:15:36;8.10;99.90
46732;DHT22;32477;51.474;5.696;2023-04-25T06:18:02;8.30;99.90
46732;DHT22;32477;51.474;5.696;2023-04-25T06:20:27;8.10;99.90
46732;DHT22;32477;51.474;5.696;2023-04-25T06:22:53;8.10;99.90
46732;DHT22;32477;51.474;5.696;2023-04-25T06:25:19;8.00;99.90
46732;DHT22;32477;51.474;5.696;2023-04-25T06:27:45;8.40;99.90
46732;DHT22;32477;51.474;5.696;2023-04-25T06:30:11;8.80;99.90
46732;DHT22;32477;51.474;5.696;2023-04-25T06:32:38;9.20;99.90
46732;DHT22;32477;51.474;5.696;2023-04-25T06:35:04;9.70;99.90
46732;DHT22;32477;51.474;5.696;2023-04-25T06:37:30;9.70;99.90
46732;DHT22;32477;51.474;5.696;2023-04-25T06:39:56;10.30;99.90
46732;DHT22;32477;51.474;5.696;2023-04-25T06:42:22;10.90;99.90
46732;DHT22;32477;51.474;5.696;2023-04-25T06:44:47;11.60;99.90
46732;DHT22;32477;51.474;5.696;2023-04-25T06:47:14;12.50;99.90
46732;DHT22;32477;51.474;5.696;2023-04-25T06:49:39;13.40;99.90
46732;DHT22;32477;51.474;5.696;2023-04-25T06:52:05;13.90;99.90
46732;DHT22;32477;51.474;5.696;2023-04-25T06:54:31;13.80;99.90
46732;DHT22;32477;51.474;5.696;2023-04-25T06:56:56;13.90;99.90
46732;DHT22;32477;51.474;5.696;2023-04-25T06:59:22;12.30;99.90
46732;DHT22;32477;51.474;5.696;2023-04-25T07:01:48;11.10;99.90
46732;DHT22;32477;51.474;5.696;2023-04-25T07:04:14;10.60;99.90
46732;DHT22;32477;51.474;5.696;2023-04-25T07:06:39;10.30;99.90
46732;DHT22;32477;51.474;5.696;2023-04-25T07:09:08;10.40;99.90
46732;DHT22;32477;51.474;5.696;2023-04-25T07:11:34;11.50;99.90
46732;DHT22;32477;51.474;5.696;2023-04-25T07:13:59;12.00;99.90
46732;DHT22;32477;51.474;5.696;2023-04-25T07:16:25;12.50;99.90
46732;DHT22;32477;51.474;5.696;2023-04-25T07:18:51;12.50;99.90
46732;DHT22;32477;51.474;5.696;2023-04-25T07:21:17;12.50;99.90
46732;DHT22;32477;51.474;5.696;2023-04-25T07:23:42;12.80;99.90
46732;DHT22;32477;51.474;5.696;2023-04-25T07:26:08;13.00;99.90
46732;DHT22;32477;51.474;5.696;2023-04-25T07:28:34;13.20;99.90
46732;DHT22;32477;51.474;5.696;2023-04-25T07:30:59;13.20;99.90
46732;DHT22;32477;51.474;5.696;2023-04-25T07:33:25;13.20;99.90
46732;DHT22;32477;51.474;5.696;2023-04-25T07:35:51;13.70;99.90
46732;DHT22;32477;51.474;5.696;2023-04-25T07:38:17;13.90;99.90
46732;DHT22;32477;51.474;5.696;2023-04-25T07:40:43;13.50;99.90
46732;DHT22;32477;51.474;5.696;2023-04-25T07:43:08;12.80;99.90
46732;DHT22;32477;51.474;5.696;2023-04-25T07:45:34;11.70;99.90
46732;DHT22;32477;51.474;5.696;2023-04-25T07:48:00;11.60;99.90
46732;DHT22;32477;51.474;5.696;2023-04-25T07:50:25;12.80;99.90
46732;DHT22;32477;51.474;5.696;2023-04-25T07:52:51;13.70;99.90
46732;DHT22;32477;51.474;5.696;2023-04-25T07:55:17;13.40;99.90
46732;DHT22;32477;51.474;5.696;2023-04-25T07:57:43;13.60;99.90
46732;DHT22;32477;51.474;5.696;2023-04-25T08:00:09;13.80;99.00
46732;DHT22;32477;51.474;5.696;2023-04-25T08:02:35;13.40;99.90
46732;DHT22;32477;51.474;5.696;2023-04-25T08:05:02;12.80;99.90
46732;DHT22;32477;51.474;5.696;2023-04-25T08:07:27;13.20;99.90
46732;DHT22;32477;51.474;5.696;2023-04-25T08:09:54;12.90;99.90
46732;DHT22;32477;51.474;5.696;2023-04-25T08:12:20;13.40;99.90
46732;DHT22;32477;51.474;5.696;2023-04-25T08:14:45;13.90;99.30
46732;DHT22;32477;51.474;5.696;2023-04-25T08:17:11;14.90;98.70
46732;DHT22;32477;51.474;5.696;2023-04-25T08:19:37;15.20;95.00
46732;DHT22;32477;51.474;5.696;2023-04-25T08:22:03;14.60;96.80
46732;DHT22;32477;51.474;5.696;2023-04-25T08:24:29;14.30;95.90
46732;DHT22;32477;51.474;5.696;2023-04-25T08:26:54;14.60;96.80
46732;DHT22;32477;51.474;5.696;2023-04-25T08:29:20;14.90;93.00
46732;DHT22;32477;51.474;5.696;2023-04-25T08:31:46;14.90;94.40
46732;DHT22;32477;51.474;5.696;2023-04-25T08:34:11;14.40;96.70
46732;DHT22;32477;51.474;5.696;2023-04-25T08:36:38;14.20;97.00
46732;DHT22;32477;51.474;5.696;2023-04-25T08:39:04;13.80;98.60
46732;DHT22;32477;51.474;5.696;2023-04-25T08:41:30;13.00;98.70
46732;DHT22;32477;51.474;5.696;2023-04-25T08:43:56;12.10;99.20
46732;DHT22;32477;51.474;5.696;2023-04-25T08:46:23;12.20;99.90
46732;DHT22;32477;51.474;5.696;2023-04-25T08:48:49;12.40;99.90
46732;DHT22;32477;51.474;5.696;2023-04-25T08:51:22;12.40;99.90
46732;DHT22;32477;51.474;5.696;2023-04-25T08:53:52;12.70;99.90
46732;DHT22;32477;51.474;5.696;2023-04-25T08:56:18;13.00;99.90
46732;DHT22;32477;51.474;5.696;2023-04-25T08:58:48;12.50;98.80
46732;DHT22;32477;51.474;5.696;2023-04-25T09:01:14;12.50;99.80
46732;DHT22;32477;51.474;5.696;2023-04-25T09:03:40;12.20;99.70
46732;DHT22;32477;51.474;5.696;2023-04-25T09:06:11;11.60;99.80
46732;DHT22;32477;51.474;5.696;2023-04-25T09:08:37;11.40;99.90
46732;DHT22;32477;51.474;5.696;2023-04-25T09:11:06;11.40;99.90
46732;DHT22;32477;51.474;5.696;2023-04-25T09:13:31;11.10;99.90
46732;DHT22;32477;51.474;5.696;2023-04-25T09:15:57;11.40;99.90
46732;DHT22;32477;51.474;5.696;2023-04-25T09:18:28;11.80;99.90
46732;DHT22;32477;51.474;5.696;2023-04-25T09:20:55;12.00;99.90
46732;DHT22;32477;51.474;5.696;2023-04-25T09:23:23;11.90;99.90
46732;DHT22;32477;51.474;5.696;2023-04-25T09:25:51;11.80;99.90
46732;DHT22;32477;51.474;5.696;2023-04-25T09:28:27;12.40;99.90
46732;DHT22;32477;51.474;5.696;2023-04-25T09:30:57;13.80;99.90
46732;DHT22;32477;51.474;5.696;2023-04-25T09:33:28;15.00;97.40
46732;DHT22;32477;51.474;5.696;2023-04-25T09:36:01;16.10;94.10
46732;DHT22;32477;51.474;5.696;2023-04-25T09:38:34;16.50;91.40
46732;DHT22;32477;51.474;5.696;2023-04-25T09:41:05;17.30;88.90
46732;DHT22;32477;51.474;5.696;2023-04-25T09:43:31;17.20;88.50
46732;DHT22;32477;51.474;5.696;2023-04-25T09:45:56;16.80;87.20
46732;DHT22;32477;51.474;5.696;2023-04-25T09:48:25;16.90;88.10
46732;DHT22;32477;51.474;5.696;2023-04-25T09:51:13;16.10;90.50
46732;DHT22;32477;51.474;5.696;2023-04-25T09:53:42;15.70;91.20
46732;DHT22;32477;51.474;5.696;2023-04-25T09:56:11;14.90;91.80
46732;DHT22;32477;51.474;5.696;2023-04-25T09:58:38;13.90;94.20
46732;DHT22;32477;51.474;5.696;2023-04-25T10:01:06;12.60;97.40
46732;DHT22;32477;51.474;5.696;2023-04-25T10:03:34;11.80;99.70
46732;DHT22;32477;51.474;5.696;2023-04-25T10:06:02;11.20;99.90
46732;DHT22;32477;51.474;5.696;2023-04-25T10:08:33;10.90;99.90
46732;DHT22;32477;51.474;5.696;2023-04-25T10:11:00;11.10;99.90
46732;DHT22;32477;51.474;5.696;2023-04-25T10:13:28;10.70;99.90
46732;DHT22;32477;51.474;5.696;2023-04-25T10:15:55;10.20;99.90
46732;DHT22;32477;51.474;5.696;2023-04-25T10:18:24;9.70;99.90
46732;DHT22;32477;51.474;5.696;2023-04-25T10:20:50;9.60;99.90
46732;DHT22;32477;51.474;5.696;2023-04-25T10:23:16;9.30;99.90
46732;DHT22;32477;51.474;5.696;2023-04-25T10:25:42;9.60;99.90
46732;DHT22;32477;51.474;5.696;2023-04-25T10:28:08;9.90;99.90
46732;DHT22;32477;51.474;5.696;2023-04-25T10:30:34;10.60;99.90
46732;DHT22;32477;51.474;5.696;2023-04-25T10:33:00;12.30;99.90
46732;DHT22;32477;51.474;5.696;2023-04-25T10:35:29;13.70;97.20
46732;DHT22;32477;51.474;5.696;2023-04-25T10:38:13;15.10;92.70
46732;DHT22;32477;51.474;5.696;2023-04-25T10:40:39;15.60;88.70
46732;DHT22;32477;51.474;5.696;2023-04-25T10:45:53;15.10;86.70
46732;DHT22;32477;51.474;5.696;2023-04-25T10:48:26;16.10;84.90
46732;DHT22;32477;51.474;5.696;2023-04-25T10:51:10;17.00;79.50
46732;DHT22;32477;51.474;5.696;2023-04-25T10:53:36;17.50;73.80
46732;DHT22;32477;51.474;5.696;2023-04-25T10:58:42;18.60;75.50
46732;DHT22;32477;51.474;5.696;2023-04-25T11:01:08;18.40;74.70
46732;DHT22;32477;51.474;5.696;2023-04-25T11:03:39;17.90;75.80
46732;DHT22;32477;51.474;5.696;2023-04-25T11:06:19;17.80;77.10
46732;DHT22;32477;51.474;5.696;2023-04-25T11:08:51;17.50;79.80
46732;DHT22;32477;51.474;5.696;2023-04-25T11:11:18;16.90;81.70
46732;DHT22;32477;51.474;5.696;2023-04-25T11:13:47;17.10;79.70
46732;DHT22;32477;51.474;5.696;2023-04-25T11:16:13;17.80;81.30
46732;DHT22;32477;51.474;5.696;2023-04-25T11:18:42;17.10;79.40
46732;DHT22;32477;51.474;5.696;2023-04-25T11:21:07;16.40;80.80
46732;DHT22;32477;51.474;5.696;2023-04-25T11:23:33;15.60;87.00
46732;DHT22;32477;51.474;5.696;2023-04-25T11:25:59;14.30;83.30
46732;DHT22;32477;51.474;5.696;2023-04-25T11:28:27;12.70;94.60
46732;DHT22;32477;51.474;5.696;2023-04-25T11:30:52;11.40;99.90
46732;DHT22;32477;51.474;5.696;2023-04-25T11:33:22;10.50;99.90
46732;DHT22;32477;51.474;5.696;2023-04-25T11:35:48;9.50;99.90
46732;DHT22;32477;51.474;5.696;2023-04-25T11:38:14;8.80;99.90
46732;DHT22;32477;51.474;5.696;2023-04-25T11:40:40;8.60;99.90
46732;DHT22;32477;51.474;5.696;2023-04-25T11:43:06;8.40;99.90
46732;DHT22;32477;51.474;5.696;2023-04-25T11:45:37;8.40;99.90
46732;DHT22;32477;51.474;5.696;2023-04-25T11:48:03;8.50;99.90
46732;DHT22;32477;51.474;5.696;2023-04-25T11:50:29;8.40;99.90
46732;DHT22;32477;51.474;5.696;2023-04-25T11:52:56;8.10;99.90
46732;DHT22;32477;51.474;5.696;2023-04-25T11:55:22;8.10;99.90
46732;DHT22;32477;51.474;5.696;2023-04-25T11:57:49;8.40;99.90
46732;DHT22;32477;51.474;5.696;2023-04-25T12:00:17;8.60;99.90
46732;DHT22;32477;51.474;5.696;2023-04-25T12:02:45;9.00;99.90
46732;DHT22;32477;51.474;5.696;2023-04-25T12:05:13;9.30;99.90
46732;DHT22;32477;51.474;5.696;2023-04-25T12:07:39;9.90;99.90
46732;DHT22;32477;51.474;5.696;2023-04-25T12:10:10;10.40;99.90
46732;DHT22;32477;51.474;5.696;2023-04-25T12:12:37;10.90;99.90
46732;DHT22;32477;51.474;5.696;2023-04-25T12:17:37;13.20;99.90
46732;DHT22;32477;51.474;5.696;2023-04-25T12:20:10;14.00;99.90
46732;DHT22;32477;51.474;5.696;2023-04-25T12:22:36;14.50;99.90
46732;DHT22;32477;51.474;5.696;2023-04-25T12:25:03;15.00;99.30
46732;DHT22;32477;51.474;5.696;2023-04-25T12:27:31;14.20;99.90
46732;DHT22;32477;51.474;5.696;2023-04-25T12:29:57;14.00;99.90
46732;DHT22;32477;51.474;5.696;2023-04-25T12:32:24;14.40;98.50
46732;DHT22;32477;51.474;5.696;2023-04-25T12:34:50;14.90;96.90
46732;DHT22;32477;51.474;5.696;2023-04-25T12:37:15;15.40;94.40
46732;DHT22;32477;51.474;5.696;2023-04-25T12:39:41;15.80;94.00
46732;DHT22;32477;51.474;5.696;2023-04-25T12:42:07;15.60;92.20
46732;DHT22;32477;51.474;5.696;2023-04-25T12:44:33;15.40;90.60
46732;DHT22;32477;51.474;5.696;2023-04-25T12:46:59;15.20;92.20
46732;DHT22;32477;51.474;5.696;2023-04-25T12:49:25;15.20;91.00
46732;DHT22;32477;51.474;5.696;2023-04-25T12:51:51;15.40;93.70
46732;DHT22;32477;51.474;5.696;2023-04-25T12:54:17;14.90;92.60
46732;DHT22;32477;51.474;5.696;2023-04-25T12:56:42;14.70;92.30
46732;DHT22;32477;51.474;5.696;2023-04-25T12:59:08;13.60;89.60
46732;DHT22;32477;51.474;5.696;2023-04-25T13:01:35;12.80;91.30
46732;DHT22;32477;51.474;5.696;2023-04-25T13:04:01;12.20;90.10
46732;DHT22;32477;51.474;5.696;2023-04-25T13:06:27;12.00;92.50
46732;DHT22;32477;51.474;5.696;2023-04-25T13:08:53;11.90;91.50
46732;DHT22;32477;51.474;5.696;2023-04-25T13:11:18;12.80;91.40
46732;DHT22;32477;51.474;5.696;2023-04-25T13:13:44;14.30;89.90
46732;DHT22;32477;51.474;5.696;2023-04-25T13:16:10;14.80;82.00
46732;DHT22;32477;51.474;5.696;2023-04-25T13:18:37;14.90;84.10
46732;DHT22;32477;51.474;5.696;2023-04-25T13:21:02;15.20;81.60
46732;DHT22;32477;51.474;5.696;2023-04-25T13:23:29;15.40;80.50
46732;DHT22;32477;51.474;5.696;2023-04-25T13:25:55;15.70;82.60
46732;DHT22;32477;51.474;5.696;2023-04-25T13:28:30;15.70;83.80
46732;DHT22;32477;51.474;5.696;2023-04-25T13:31:00;13.20;93.30
46732;DHT22;32477;51.474;5.696;2023-04-25T13:33:26;11.90;98.30
46732;DHT22;32477;51.474;5.696;2023-04-25T13:35:52;11.10;99.90
46732;DHT22;32477;51.474;5.696;2023-04-25T13:38:23;10.70;99.90
46732;DHT22;32477;51.474;5.696;2023-04-25T13:40:50;10.70;99.90
46732;DHT22;32477;51.474;5.696;2023-04-25T13:43:20;11.70;99.90
46732;DHT22;32477;51.474;5.696;2023-04-25T13:45:47;12.40;97.60
46732;DHT22;32477;51.474;5.696;2023-04-25T13:48:13;13.70;95.60
46732;DHT22;32477;51.474;5.696;2023-04-25T13:50:39;14.50;91.20
46732;DHT22;32477;51.474;5.696;2023-04-25T13:53:05;14.90;91.20
46732;DHT22;32477;51.474;5.696;2023-04-25T13:55:30;15.30;89.20
46732;DHT22;32477;51.474;5.696;2023-04-25T13:57:56;14.80;87.50
46732;DHT22;32477;51.474;5.696;2023-04-25T14:00:22;14.60;89.90
46732;DHT22;32477;51.474;5.696;2023-04-25T14:02:48;13.80;90.00
46732;DHT22;32477;51.474;5.696;2023-04-25T14:05:14;13.90;91.40
46732;DHT22;32477;51.474;5.696;2023-04-25T14:07:40;13.80;90.80
46732;DHT22;32477;51.474;5.696;2023-04-25T14:10:06;13.70;91.60
46732;DHT22;32477;51.474;5.696;2023-04-25T14:12:32;13.40;92.00
46732;DHT22;32477;51.474;5.696;2023-04-25T14:14:58;12.90;93.10
46732;DHT22;32477;51.474;5.696;2023-04-25T14:17:23;13.00;94.60
46732;DHT22;32477;51.474;5.696;2023-04-25T14:19:50;13.00;93.90
46732;DHT22;32477;51.474;5.696;2023-04-25T14:22:15;12.90;94.50
46732;DHT22;32477;51.474;5.696;2023-04-25T14:24:41;12.10;95.50
46732;DHT22;32477;51.474;5.696;2023-04-25T14:27:07;11.70;98.20
46732;DHT22;32477;51.474;5.696;2023-04-25T14:29:33;11.30;99.20
46732;DHT22;32477;51.474;5.696;2023-04-25T14:31:58;11.00;99.90
46732;DHT22;32477;51.474;5.696;2023-04-25T14:34:24;10.70;99.90
46732;DHT22;32477;51.474;5.696;2023-04-25T14:36:51;10.50;99.90
46732;DHT22;32477;51.474;5.696;2023-04-25T14:39:17;10.60;99.90
46732;DHT22;32477;51.474;5.696;2023-04-25T14:41:43;11.20;99.90
46732;DHT22;32477;51.474;5.696;2023-04-25T14:44:09;11.60;99.90
46732;DHT22;32477;51.474;5.696;2023-04-25T14:46:35;11.60;99.90
46732;DHT22;32477;51.474;5.696;2023-04-25T14:49:01;11.30;99.90
46732;DHT22;32477;51.474;5.696;2023-04-25T14:51:27;11.20;99.60
46732;DHT22;32477;51.474;5.696;2023-04-25T14:53:53;11.20;99.60
46732;DHT22;32477;51.474;5.696;2023-04-25T14:56:18;11.20;99.90
46732;DHT22;32477;51.474;5.696;2023-04-25T14:58:44;11.00;99.90
46732;DHT22;32477;51.474;5.696;2023-04-25T15:01:11;10.70;99.90
46732;DHT22;32477;51.474;5.696;2023-04-25T15:03:38;10.60;99.90
46732;DHT22;32477;51.474;5.696;2023-04-25T15:06:05;10.60;99.90
46732;DHT22;32477;51.474;5.696;2023-04-25T15:08:31;10.60;99.90
46732;DHT22;32477;51.474;5.696;2023-04-25T15:10:58;10.90;99.90
46732;DHT22;32477;51.474;5.696;2023-04-25T15:13:24;10.90;99.90
46732;DHT22;32477;51.474;5.696;2023-04-25T15:15:50;11.10;99.90
46732;DHT22;32477;51.474;5.696;2023-04-25T15:18:21;11.00;99.90
46732;DHT22;32477;51.474;5.696;2023-04-25T15:20:48;11.00;99.90
46732;DHT22;32477;51.474;5.696;2023-04-25T15:23:14;11.00;99.90
46732;DHT22;32477;51.474;5.696;2023-04-25T15:25:39;11.20;99.90
46732;DHT22;32477;51.474;5.696;2023-04-25T15:28:05;11.00;99.90
46732;DHT22;32477;51.474;5.696;2023-04-25T15:30:30;11.10;99.90
46732;DHT22;32477;51.474;5.696;2023-04-25T15:32:56;11.00;99.90
46732;DHT22;32477;51.474;5.696;2023-04-25T15:35:22;10.90;99.90
46732;DHT22;32477;51.474;5.696;2023-04-25T15:37:47;10.80;99.90
46732;DHT22;32477;51.474;5.696;2023-04-25T15:40:16;10.80;99.90